createdAt,value
2022-09-06T00:00:58.485Z,72.61
2022-09-06T00:03:25.235Z,72.07
2022-09-06T00:05:51.656Z,71.89
2022-09-06T00:08:18.022Z,71.82
2022-09-06T00:10:44.360Z,71.52
2022-09-06T00:13:11.225Z,71.48
2022-09-06T00:15:37.796Z,71.67
2022-09-06T00:18:07.305Z,71.87
2022-09-06T00:20:37.552Z,72.39
2022-09-06T00:23:05.501Z,72.17
2022-09-06T00:25:32.381Z,71.96
2022-09-06T00:28:01.617Z,72.05
2022-09-06T00:30:29.672Z,72.24
2022-09-06T00:32:56.405Z,72.38
2022-09-06T00:35:24.319Z,72.54
2022-09-06T00:37:51.815Z,72.98
2022-09-06T00:40:18.448Z,72.82
2022-09-06T00:42:44.811Z,72.67
2022-09-06T00:45:11.841Z,73.25
2022-09-06T00:47:41.401Z,73.61
2022-09-06T00:50:10.094Z,73.37
2022-09-06T00:52:37.782Z,73.30
2022-09-06T00:55:04.605Z,73.05
2022-09-06T00:57:31.111Z,73.28
2022-09-06T00:59:59.389Z,73.74
2022-09-06T01:02:26.118Z,73.94
2022-09-06T01:04:53.516Z,74.23
2022-09-06T01:07:31.994Z,74.66
2022-09-06T01:10:17.150Z,74.13
2022-09-06T01:13:02.273Z,75.30
2022-09-06T01:15:52.758Z,77.62
2022-09-06T01:18:38.808Z,79.31
2022-09-06T01:21:20.740Z,79.26
2022-09-06T01:24:18.198Z,80.02
2022-09-06T01:27:11.766Z,80.12
2022-09-06T01:29:52.869Z,80.22
2022-09-06T01:32:41.150Z,79.99
2022-09-06T01:35:20.409Z,79.73
2022-09-06T01:37:47.393Z,79.09
2022-09-06T01:40:13.771Z,80.52
2022-09-06T01:42:41.394Z,80.59
2022-09-06T01:45:10.985Z,81.05
2022-09-06T01:47:47.103Z,81.62
2022-09-06T01:50:32.316Z,84.41
2022-09-06T01:53:41.997Z,83.60
2022-09-06T01:56:22.293Z,84.03
2022-09-06T01:59:00.760Z,82.89
2022-09-06T02:02:20.339Z,83.53
2022-09-06T02:04:55.685Z,82.71
2022-09-06T02:07:27.378Z,82.50
2022-09-06T02:09:58.591Z,83.10
2022-09-06T02:12:28.029Z,82.61
2022-09-06T02:15:02.248Z,83.05
2022-09-06T02:17:35.419Z,85.70
2022-09-06T02:20:27.052Z,84.54
2022-09-06T02:22:57.093Z,84.34
2022-09-06T02:25:29.828Z,84.32
2022-09-06T02:27:56.311Z,84.62
2022-09-06T02:30:23.286Z,87.26
2022-09-06T02:33:04.535Z,86.23
2022-09-06T02:35:31.082Z,84.95
2022-09-06T02:37:57.476Z,85.58
2022-09-06T02:40:24.325Z,87.42
2022-09-06T02:42:50.660Z,86.43
2022-09-06T02:45:17.025Z,86.82
2022-09-06T02:47:43.368Z,86.63
2022-09-06T02:50:09.827Z,85.79
2022-09-06T02:52:36.176Z,85.06
2022-09-06T02:55:02.606Z,85.63
2022-09-06T02:57:28.954Z,85.41
2022-09-06T02:59:55.311Z,85.36
2022-09-06T03:02:21.723Z,85.95
2022-09-06T03:04:48.113Z,86.65
2022-09-06T03:07:14.456Z,86.12
2022-09-06T03:09:40.776Z,86.48
2022-09-06T03:12:07.296Z,86.69
2022-09-06T03:14:33.632Z,87.80
2022-09-06T03:17:00.014Z,87.92
2022-09-06T03:19:26.433Z,88.89
2022-09-06T03:21:52.772Z,88.91
2022-09-06T03:24:19.091Z,89.05
2022-09-06T03:26:45.425Z,92.02
2022-09-06T03:29:11.773Z,90.39
2022-09-06T03:31:38.217Z,92.69
2022-09-06T03:34:07.997Z,91.51
2022-09-06T03:36:36.754Z,90.31
2022-09-06T03:39:03.217Z,89.85
2022-09-06T03:41:29.560Z,90.35
2022-09-06T03:43:55.905Z,92.35
2022-09-06T03:46:22.291Z,94.58
2022-09-06T03:48:48.652Z,94.69
2022-09-06T03:51:15.001Z,96.84
2022-09-06T03:53:41.361Z,95.74
2022-09-06T03:56:07.704Z,97.95
2022-09-06T03:58:34.047Z,97.20
2022-09-06T04:01:08.755Z,95.66
2022-09-06T04:03:36.400Z,95.81
2022-09-06T04:06:04.036Z,95.09
2022-09-06T04:08:30.779Z,94.52
2022-09-06T04:10:58.141Z,94.05
2022-09-06T04:13:26.120Z,93.74
2022-09-06T04:15:52.831Z,93.62
2022-09-06T04:18:20.559Z,93.28
2022-09-06T04:20:51.917Z,93.19
2022-09-06T04:23:19.398Z,92.54
2022-09-06T04:25:49.512Z,93.93
2022-09-06T04:28:16.722Z,93.30
2022-09-06T04:30:43.064Z,92.62
2022-09-06T04:33:09.433Z,94.30
2022-09-06T04:35:36.129Z,92.71
2022-09-06T04:38:03.829Z,92.34
2022-09-06T04:40:30.392Z,91.83
2022-09-06T04:42:56.808Z,92.44
2022-09-06T04:45:23.143Z,91.87
2022-09-06T04:47:49.507Z,91.68
2022-09-06T04:50:15.868Z,94.13
2022-09-06T04:52:42.192Z,92.33
2022-09-06T04:55:09.025Z,92.98
2022-09-06T04:57:35.354Z,92.42
2022-09-06T05:00:01.811Z,94.63
2022-09-06T05:02:28.202Z,93.39
2022-09-06T05:04:54.632Z,93.16
2022-09-06T05:07:20.993Z,92.83
2022-09-06T05:09:47.325Z,92.54
2022-09-06T05:12:13.680Z,92.87
2022-09-06T05:14:39.992Z,93.26
2022-09-06T05:17:06.381Z,92.88
2022-09-06T05:19:32.716Z,93.18
2022-09-06T05:21:59.058Z,93.12
2022-09-06T05:24:25.409Z,93.47
2022-09-06T05:26:51.732Z,93.02
2022-09-06T05:29:18.103Z,92.22
2022-09-06T05:31:44.483Z,91.66
2022-09-06T05:34:10.890Z,93.01
2022-09-06T05:36:37.306Z,91.95
2022-09-06T05:39:03.758Z,92.75
2022-09-06T05:41:30.106Z,92.38
2022-09-06T05:43:56.439Z,92.29
2022-09-06T05:46:22.769Z,92.23
2022-09-06T05:48:53.825Z,91.59
2022-09-06T05:51:20.222Z,91.89
2022-09-06T05:53:46.617Z,92.98
2022-09-06T05:56:14.293Z,94.71
2022-09-06T05:58:40.694Z,95.72
2022-09-06T06:01:14.502Z,97.49
2022-09-06T06:03:40.929Z,98.46
2022-09-06T06:06:07.356Z,99.87
2022-09-06T06:08:35.243Z,100.00
2022-09-06T06:11:02.189Z,98.74
2022-09-06T06:13:29.233Z,94.19
2022-09-06T06:15:56.208Z,91.00
2022-09-06T06:18:22.704Z,88.00
2022-09-06T06:20:49.132Z,85.81
2022-09-06T06:23:15.604Z,83.84
2022-09-06T06:25:41.959Z,83.33
2022-09-06T06:28:08.307Z,83.57
2022-09-06T06:30:34.708Z,84.17
2022-09-06T06:33:01.111Z,83.45
2022-09-06T06:35:27.478Z,81.86
2022-09-06T06:37:53.811Z,80.36
2022-09-06T06:40:20.157Z,78.85
2022-09-06T06:42:46.498Z,77.37
2022-09-06T06:45:12.877Z,75.80
2022-09-06T06:47:39.234Z,74.49
2022-09-06T06:50:06.176Z,72.67
2022-09-06T06:52:32.534Z,71.63
2022-09-06T06:54:58.890Z,70.47
2022-09-06T06:57:25.240Z,69.08
2022-09-06T06:59:51.569Z,68.80
2022-09-06T07:02:18.099Z,67.53
2022-09-06T07:04:44.528Z,69.26
2022-09-06T07:12:43.647Z,65.82
2022-09-06T07:15:10.149Z,65.59
2022-09-06T07:17:36.492Z,64.29
2022-09-06T07:20:18.400Z,61.38
2022-09-06T07:22:44.756Z,55.84
2022-09-06T07:25:12.806Z,56.07
2022-09-06T07:27:48.870Z,53.50
2022-09-06T07:30:16.185Z,51.39
2022-09-06T07:32:42.600Z,50.10
2022-09-06T07:35:09.223Z,49.21
2022-09-06T07:37:35.588Z,47.73
2022-09-06T07:40:03.244Z,44.92
2022-09-06T07:42:35.657Z,47.15
2022-09-06T07:45:03.383Z,47.07
2022-09-06T07:53:13.145Z,42.92
2022-09-06T07:55:43.962Z,41.98
2022-09-06T07:58:10.322Z,41.47
2022-09-06T08:00:36.764Z,41.79
2022-09-06T08:03:03.189Z,41.79
2022-09-06T08:11:02.952Z,42.08
2022-09-06T08:13:29.681Z,41.40
2022-09-06T08:16:00.292Z,41.54
2022-09-06T08:18:26.829Z,42.35
2022-09-06T08:20:53.208Z,40.62
2022-09-06T08:23:19.593Z,40.93
2022-09-06T08:25:56.233Z,41.53
2022-09-06T08:28:25.601Z,41.84
2022-09-06T08:30:54.553Z,41.91
2022-09-06T08:33:21.015Z,41.91
2022-09-06T08:35:58.484Z,41.41
2022-09-06T08:38:25.017Z,42.33
2022-09-06T08:40:53.682Z,40.91
2022-09-06T08:43:22.160Z,40.06
2022-09-06T08:45:55.864Z,40.79
2022-09-06T08:48:25.211Z,40.30
2022-09-06T08:51:07.430Z,38.14
2022-09-06T08:53:41.417Z,39.16
2022-09-06T08:56:31.897Z,39.44
2022-09-06T08:59:07.313Z,38.87
2022-09-06T09:01:48.919Z,38.91
2022-09-06T09:04:20.197Z,37.48
2022-09-06T09:06:50.507Z,37.21
2022-09-06T09:09:16.909Z,37.90
2022-09-06T09:11:47.233Z,37.95
2022-09-06T09:14:46.717Z,37.12
2022-09-06T09:17:19.365Z,37.08
2022-09-06T09:19:46.161Z,37.20
2022-09-06T09:22:17.037Z,37.47
2022-09-06T09:24:44.118Z,38.42
2022-09-06T09:27:11.546Z,38.05
2022-09-06T09:32:42.290Z,39.65
2022-09-06T09:35:21.117Z,38.89
2022-09-06T09:37:50.620Z,39.52
2022-09-06T09:40:24.485Z,39.27
2022-09-06T09:42:51.858Z,39.13
2022-09-06T09:45:30.310Z,40.16
2022-09-06T09:47:57.224Z,41.30
2022-09-06T09:50:31.132Z,40.91
2022-09-06T09:53:09.243Z,40.86
2022-09-06T09:55:36.169Z,41.61
2022-09-06T09:58:03.562Z,41.79
2022-09-06T10:00:39.196Z,41.18
2022-09-06T10:03:20.220Z,41.19
2022-09-06T10:06:02.653Z,41.65
2022-09-06T10:08:32.392Z,41.97
2022-09-06T10:10:58.968Z,42.89
2022-09-06T10:13:27.990Z,42.71
2022-09-06T10:15:54.392Z,42.67
2022-09-06T10:18:20.747Z,42.48
2022-09-06T10:20:53.804Z,43.74
2022-09-06T10:26:46.104Z,43.09
2022-09-06T10:29:13.121Z,42.47
2022-09-06T10:31:39.475Z,41.55
2022-09-06T10:34:33.576Z,42.14
2022-09-06T10:37:36.966Z,41.77
2022-09-06T10:40:08.433Z,40.95
2022-09-06T10:42:39.254Z,40.65
2022-09-06T10:45:27.565Z,41.98
2022-09-06T10:48:21.012Z,41.50
2022-09-06T10:51:12.329Z,41.27
2022-09-06T10:53:50.573Z,41.12
2022-09-06T10:56:39.717Z,41.53
2022-09-06T10:59:36.615Z,41.74
2022-09-06T11:02:13.041Z,40.63
2022-09-06T11:07:30.705Z,40.56
2022-09-06T11:10:18.642Z,40.53
2022-09-06T11:12:54.028Z,41.00
2022-09-06T11:15:22.624Z,41.21
2022-09-06T11:17:51.992Z,40.62
2022-09-06T11:20:31.382Z,39.59
2022-09-06T11:23:23.936Z,40.22
2022-09-06T11:26:28.953Z,40.79
2022-09-06T11:28:59.283Z,39.51
2022-09-06T11:34:31.561Z,41.04
2022-09-06T11:37:06.569Z,41.06
2022-09-06T11:42:43.965Z,40.79
2022-09-06T11:45:10.262Z,39.60
2022-09-06T11:47:45.345Z,39.25
2022-09-06T11:50:22.752Z,38.36
2022-09-06T11:52:55.014Z,38.99
2022-09-06T11:55:32.235Z,38.11
2022-09-06T11:58:01.723Z,38.32
2022-09-06T12:00:28.253Z,38.32
2022-09-06T12:02:54.875Z,38.38
2022-09-06T12:05:31.475Z,37.41
2022-09-06T12:08:22.844Z,39.16
2022-09-06T12:10:57.411Z,38.80
2022-09-06T12:13:47.213Z,38.01
2022-09-06T12:16:15.062Z,37.99
2022-09-06T12:18:47.392Z,38.53
2022-09-06T12:21:40.110Z,39.03
2022-09-06T12:24:35.315Z,38.52
2022-09-06T12:27:13.449Z,36.77
2022-09-06T12:29:40.125Z,37.28
2022-09-06T12:32:06.600Z,36.79
2022-09-06T12:34:37.830Z,35.95
2022-09-06T12:37:06.118Z,35.58
2022-09-06T12:39:33.771Z,36.30
2022-09-06T12:42:10.739Z,36.44
2022-09-06T12:44:41.593Z,37.14
2022-09-06T12:47:22.270Z,36.40
2022-09-06T12:50:05.976Z,36.90
2022-09-06T12:52:32.341Z,37.46
2022-09-06T12:54:58.815Z,37.57
2022-09-06T12:57:25.829Z,37.13
2022-09-06T12:59:54.842Z,36.19
2022-09-06T13:02:38.330Z,35.79
2022-09-06T13:05:08.513Z,36.61
2022-09-06T13:07:41.125Z,36.46
2022-09-06T13:10:08.480Z,37.28
2022-09-06T13:12:39.071Z,36.85
2022-09-06T13:15:11.880Z,36.92
2022-09-06T13:17:38.745Z,36.29
2022-09-06T13:20:23.154Z,36.10
2022-09-06T13:22:51.315Z,35.27
2022-09-06T13:25:20.988Z,33.81
2022-09-06T13:27:55.504Z,35.12
2022-09-06T13:30:40.850Z,35.54
2022-09-06T13:33:08.449Z,35.68
2022-09-06T13:35:37.540Z,36.06
2022-09-06T13:38:31.185Z,35.19
2022-09-06T13:41:16.517Z,35.26
2022-09-06T13:43:45.672Z,34.22
2022-09-06T13:46:12.035Z,34.12
2022-09-06T13:48:38.894Z,34.20
2022-09-06T13:51:09.612Z,33.94
2022-09-06T13:53:36.005Z,34.30
2022-09-06T13:56:03.241Z,34.40
2022-09-06T13:58:29.788Z,33.72
2022-09-06T14:00:56.705Z,34.50
2022-09-06T14:03:31.508Z,34.85
2022-09-06T14:05:58.490Z,35.23
2022-09-06T14:08:24.977Z,34.12
2022-09-06T14:10:52.184Z,33.02
2022-09-06T14:13:19.608Z,32.22
2022-09-06T14:15:47.216Z,31.94
2022-09-06T14:18:14.555Z,32.77
2022-09-06T14:20:41.588Z,32.35
2022-09-06T14:23:08.280Z,32.17
2022-09-06T14:25:36.392Z,32.68
2022-09-06T14:28:04.052Z,32.48
2022-09-06T14:30:30.972Z,32.56
2022-09-06T14:32:57.755Z,34.04
2022-09-06T14:35:24.486Z,33.39
2022-09-06T14:37:51.222Z,31.83
2022-09-06T14:40:17.609Z,32.06
2022-09-06T14:42:47.546Z,32.54
2022-09-06T14:45:16.331Z,31.99
2022-09-06T14:47:42.862Z,32.65
2022-09-06T14:50:09.564Z,32.52
2022-09-06T14:52:36.035Z,32.42
2022-09-06T14:55:02.552Z,32.43
2022-09-06T14:57:28.972Z,32.53
2022-09-06T14:59:55.567Z,32.09
2022-09-06T15:02:22.166Z,32.43
2022-09-06T15:04:48.580Z,32.90
2022-09-06T15:07:14.909Z,33.10
2022-09-06T15:09:41.283Z,33.42
2022-09-06T15:12:07.672Z,32.71
2022-09-06T15:14:34.017Z,32.94
2022-09-06T15:17:00.404Z,32.48
2022-09-06T15:19:29.176Z,32.16
2022-09-06T15:21:56.519Z,33.03
2022-09-06T15:24:24.317Z,32.76
2022-09-06T15:26:50.777Z,33.31
2022-09-06T15:29:17.238Z,33.93
2022-09-06T15:31:44.109Z,33.91
2022-09-06T15:34:10.567Z,33.93
2022-09-06T15:36:37.445Z,34.23
2022-09-06T15:39:05.339Z,34.34
2022-09-06T15:41:34.561Z,34.49
2022-09-06T15:44:05.982Z,34.99
2022-09-06T15:46:35.133Z,34.96
2022-09-06T15:49:03.973Z,35.03
2022-09-06T15:51:30.639Z,35.19
2022-09-06T15:53:58.593Z,36.51
2022-09-06T15:56:24.999Z,37.08
2022-09-06T15:58:51.372Z,37.20
2022-09-06T16:01:23.255Z,36.66
2022-09-06T16:03:55.472Z,37.63
2022-09-06T16:09:11.810Z,37.54
2022-09-06T16:11:38.143Z,38.58
2022-09-06T16:14:07.322Z,41.77
2022-09-06T16:16:34.408Z,42.41
2022-09-06T16:19:00.861Z,42.51
2022-09-06T16:21:29.633Z,43.47
2022-09-06T16:23:57.734Z,44.24
2022-09-06T16:26:26.252Z,44.51
2022-09-06T16:28:53.284Z,44.91
2022-09-06T16:31:20.999Z,45.34
2022-09-06T16:33:47.955Z,45.14
2022-09-06T16:36:14.770Z,46.00
2022-09-06T16:38:42.089Z,45.82
2022-09-06T16:41:24.105Z,46.49
2022-09-06T16:43:51.454Z,46.44
2022-09-06T16:46:18.727Z,46.86
2022-09-06T16:49:00.872Z,47.61
2022-09-06T16:51:28.451Z,47.15
2022-09-06T16:53:56.248Z,47.89
2022-09-06T16:56:25.627Z,47.78
2022-09-06T16:58:57.083Z,47.76
2022-09-06T17:01:25.066Z,47.39
2022-09-06T17:03:51.567Z,47.68
2022-09-06T17:06:19.083Z,47.54
2022-09-06T17:08:45.615Z,47.28
2022-09-06T17:11:17.305Z,47.42
2022-09-06T17:13:45.923Z,47.72
2022-09-06T17:16:13.190Z,47.56
2022-09-06T17:18:39.643Z,47.54
2022-09-06T17:21:06.152Z,47.15
2022-09-06T17:23:33.233Z,47.06
2022-09-06T17:25:59.640Z,47.05
2022-09-06T17:28:26.638Z,47.22
2022-09-06T17:30:53.455Z,47.42
2022-09-06T17:33:20.677Z,47.96
2022-09-06T17:35:47.705Z,47.76
2022-09-06T17:38:15.414Z,48.31
2022-09-06T17:40:42.031Z,48.44
2022-09-06T17:43:08.428Z,48.60
2022-09-06T17:45:39.226Z,48.94
2022-09-06T17:48:05.923Z,48.78
2022-09-06T17:50:34.224Z,48.85
2022-09-06T17:53:00.912Z,49.17
2022-09-06T17:55:28.580Z,49.64
2022-09-06T17:57:56.038Z,50.01
2022-09-06T18:00:23.865Z,50.23
2022-09-06T18:02:50.283Z,50.59
2022-09-06T18:05:17.406Z,51.40
2022-09-06T18:07:43.829Z,51.88
2022-09-06T18:10:10.253Z,52.93
2022-09-06T18:12:36.588Z,53.61
2022-09-06T18:15:03.110Z,53.78
2022-09-06T18:17:29.488Z,54.35
2022-09-06T18:19:56.352Z,54.06
2022-09-06T18:22:22.697Z,54.13
2022-09-06T18:24:49.148Z,54.46
2022-09-06T18:27:15.739Z,55.01
2022-09-06T18:29:42.561Z,54.94
2022-09-06T18:32:09.172Z,55.09
2022-09-06T18:34:35.741Z,55.93
2022-09-06T18:37:02.072Z,56.30
2022-09-06T18:39:28.517Z,56.76
2022-09-06T18:41:54.894Z,57.78
2022-09-06T18:44:21.404Z,59.16
2022-09-06T18:46:47.827Z,59.88
2022-09-06T18:49:14.669Z,60.11
2022-09-06T18:51:41.386Z,60.78
2022-09-06T18:54:08.170Z,61.18
2022-09-06T18:56:34.529Z,61.02
2022-09-06T18:59:01.185Z,60.73
2022-09-06T19:01:29.302Z,60.98
2022-09-06T19:03:57.341Z,61.17
2022-09-06T19:06:24.172Z,61.97
2022-09-06T19:08:50.661Z,63.32
2022-09-06T19:11:18.426Z,63.47
2022-09-06T19:13:46.757Z,64.50
2022-09-06T19:16:14.231Z,66.27
2022-09-06T19:21:11.240Z,67.24
2022-09-06T19:23:39.770Z,67.24
2022-09-06T19:26:09.493Z,67.67
2022-09-06T19:28:37.559Z,67.76
2022-09-06T19:31:09.280Z,68.10
2022-09-06T19:33:36.264Z,67.89
2022-09-06T19:36:11.682Z,66.26
2022-09-06T19:39:01.460Z,66.35
2022-09-06T19:41:26.292Z,66.11
2022-09-06T19:43:54.805Z,66.85
2022-09-06T19:46:22.003Z,66.54
2022-09-06T19:48:50.384Z,66.52
2022-09-06T19:51:18.201Z,67.36
2022-09-06T19:53:48.659Z,66.47
2022-09-06T19:56:17.090Z,66.86
2022-09-06T19:58:44.646Z,69.33
2022-09-06T20:01:13.907Z,67.30
2022-09-06T20:03:40.312Z,66.92
2022-09-06T20:06:07.623Z,66.82
2022-09-06T20:08:35.102Z,67.02
2022-09-06T20:11:03.015Z,67.77
2022-09-06T20:13:30.300Z,68.33
2022-09-06T20:15:57.091Z,68.08
2022-09-06T20:18:24.168Z,67.98
2022-09-06T20:20:55.386Z,68.59
2022-09-06T20:23:21.848Z,69.14
2022-09-06T20:26:03.224Z,70.54
2022-09-06T20:28:30.168Z,70.52
2022-09-06T20:31:11.581Z,71.48
2022-09-06T20:33:38.012Z,70.11
2022-09-06T20:36:07.137Z,70.01
2022-09-06T20:38:39.828Z,69.99
2022-09-06T20:41:07.656Z,69.83
2022-09-06T20:43:35.445Z,70.13
2022-09-06T20:46:22.924Z,70.11
2022-09-06T20:48:49.662Z,69.53
2022-09-06T20:51:18.378Z,70.07
2022-09-06T20:53:46.476Z,70.18
2022-09-06T20:56:15.802Z,72.22
2022-09-06T20:58:46.852Z,72.89
2022-09-06T21:01:14.483Z,71.03
2022-09-06T21:03:42.285Z,71.06
2022-09-06T21:06:10.180Z,70.75
2022-09-06T21:08:40.656Z,71.50
2022-09-06T21:11:08.198Z,73.83
2022-09-06T21:13:35.145Z,73.52
2022-09-06T21:16:02.172Z,74.69
2022-09-06T21:18:30.025Z,75.57
2022-09-06T21:20:59.557Z,77.46
2022-09-06T21:23:27.128Z,78.17
2022-09-06T21:25:53.418Z,78.71
2022-09-06T21:28:19.764Z,79.57
2022-09-06T21:30:46.117Z,80.11
2022-09-06T21:33:12.481Z,81.11
2022-09-06T21:35:38.837Z,83.06
2022-09-06T21:38:05.182Z,82.03
2022-09-06T21:40:34.722Z,81.25
2022-09-06T21:43:01.086Z,81.91
2022-09-06T21:45:27.437Z,82.36
2022-09-06T21:47:53.762Z,83.77
2022-09-06T21:50:20.128Z,83.25
2022-09-06T21:52:46.479Z,85.85
2022-09-06T21:55:15.546Z,84.95
2022-09-06T21:57:42.115Z,84.22
2022-09-06T22:00:08.911Z,83.89
2022-09-06T22:02:35.320Z,86.69
2022-09-06T22:05:01.714Z,84.93
2022-09-06T22:07:28.053Z,87.71
2022-09-06T22:09:54.374Z,88.20
2022-09-06T22:12:20.713Z,88.57
2022-09-06T22:14:47.046Z,88.78
2022-09-06T22:17:13.409Z,88.70
2022-09-06T22:19:39.781Z,88.35
2022-09-06T22:22:06.131Z,88.23
2022-09-06T22:24:32.840Z,88.14
2022-09-06T22:26:59.196Z,88.00
2022-09-06T22:29:25.624Z,87.64
2022-09-06T22:31:52.042Z,87.28
2022-09-06T22:34:18.513Z,87.67
2022-09-06T22:36:44.851Z,87.11
2022-09-06T22:39:11.179Z,87.50
2022-09-06T22:41:37.758Z,86.98
2022-09-06T22:44:05.027Z,86.73
2022-09-06T22:46:31.879Z,87.16
2022-09-06T22:48:58.891Z,87.33
2022-09-06T22:51:25.489Z,86.98
2022-09-06T22:53:51.869Z,87.03
2022-09-06T22:56:18.200Z,87.58
2022-09-06T22:58:44.549Z,87.69
2022-09-06T23:01:14.320Z,87.96
2022-09-06T23:03:41.347Z,87.99
2022-09-06T23:06:08.076Z,87.68
2022-09-06T23:08:37.020Z,88.01
2022-09-06T23:11:05.627Z,86.90
2022-09-06T23:13:32.110Z,86.55
2022-09-06T23:16:07.076Z,86.18
2022-09-06T23:18:33.905Z,85.18
2022-09-06T23:21:08.591Z,86.84
2022-09-06T23:23:35.933Z,87.96
2022-09-06T23:26:28.153Z,88.40
2022-09-06T23:28:54.993Z,86.67
2022-09-06T23:31:21.381Z,87.76
2022-09-06T23:33:52.021Z,88.33
2022-09-06T23:36:18.420Z,87.38
2022-09-06T23:38:44.780Z,88.48
2022-09-06T23:41:11.788Z,88.98
2022-09-06T23:43:40.007Z,91.57
2022-09-06T23:48:34.240Z,92.87
2022-09-06T23:51:00.780Z,92.29
2022-09-06T23:53:27.234Z,93.46
2022-09-06T23:55:53.793Z,93.66
2022-09-06T23:58:20.148Z,94.85
